createdAt,value
2023-04-18T05:03:20.231Z,95986.00
2023-04-18T05:04:21.187Z,95984.00
2023-04-18T05:05:21.096Z,95982.00
2023-04-18T05:06:20.138Z,95984.00
2023-04-18T05:07:21.116Z,95982.00
2023-04-18T05:08:20.165Z,95986.00
2023-04-18T05:09:20.224Z,95986.00
2023-04-18T05:10:21.260Z,95988.00
2023-04-18T05:11:20.261Z,95984.00
2023-04-18T05:12:21.249Z,95990.00
2023-04-18T05:13:21.255Z,95992.00
2023-04-18T05:14:20.245Z,95992.00
2023-04-18T05:15:21.284Z,95992.00
2023-04-18T05:16:20.264Z,95994.00
2023-04-18T05:17:21.280Z,95995.00
2023-04-18T05:18:20.345Z,95992.00
2023-04-18T05:19:21.363Z,95994.00
2023-04-18T05:20:21.388Z,95988.00
2023-04-18T05:21:20.439Z,95990.00
2023-04-18T05:22:20.500Z,95990.00
2023-04-18T05:23:21.511Z,95990.00
2023-04-18T05:24:21.524Z,95988.00
2023-04-18T05:25:20.532Z,95992.00
2023-04-18T05:26:21.566Z,95994.00
2023-04-18T05:27:20.652Z,95995.00
2023-04-18T05:28:21.644Z,95994.00
2023-04-18T05:29:21.655Z,95994.00
2023-04-18T05:30:20.677Z,95997.00
2023-04-18T05:31:20.791Z,95999.00
2023-04-18T05:32:21.678Z,95999.00
2023-04-18T05:33:21.679Z,96001.00
2023-04-18T05:34:21.690Z,95999.00
2023-04-18T05:35:20.775Z,96003.00
2023-04-18T05:36:21.809Z,95995.00
2023-04-18T05:37:21.854Z,95999.00
2023-04-18T05:38:20.870Z,96003.00
2023-04-18T05:39:21.922Z,96003.00
2023-04-18T05:40:21.994Z,96003.00
2023-04-18T05:41:21.973Z,96001.00
2023-04-18T05:42:21.976Z,96003.00
2023-04-18T05:43:21.989Z,96003.00
2023-04-18T05:44:21.381Z,96003.00
2023-04-18T05:45:21.135Z,96001.00
2023-04-18T05:46:22.073Z,95999.00
2023-04-18T05:47:21.157Z,95999.00
2023-04-18T05:48:21.034Z,96009.00
2023-04-18T05:49:22.036Z,96005.00
2023-04-18T05:50:22.072Z,96001.00
2023-04-18T05:51:22.127Z,96001.00
2023-04-18T05:52:22.132Z,96005.00
2023-04-18T05:53:22.183Z,96005.00
2023-04-18T05:54:22.252Z,96007.00
2023-04-18T05:55:21.306Z,96009.00
2023-04-18T05:56:22.334Z,96009.00
2023-04-18T05:57:22.408Z,96009.00
2023-04-18T05:58:22.420Z,96009.00
2023-04-18T05:59:22.493Z,96011.00
2023-04-18T06:00:22.670Z,96013.00
2023-04-18T06:01:22.575Z,96013.00
2023-04-18T06:02:22.271Z,96011.00
2023-04-18T06:03:22.933Z,96013.00
2023-04-18T06:04:22.834Z,96009.00
2023-04-18T06:05:24.724Z,96007.00
2023-04-18T06:06:22.693Z,96009.00
2023-04-18T06:07:22.780Z,96011.00
2023-04-18T06:08:21.839Z,96011.00
2023-04-18T06:09:22.688Z,96013.00
2023-04-18T06:10:21.665Z,96009.00
2023-04-18T06:11:21.920Z,96009.00
2023-04-18T06:12:22.646Z,96011.00
2023-04-18T06:13:21.650Z,96011.00
2023-04-18T06:14:22.635Z,96015.00
2023-04-18T06:15:21.644Z,96013.00
2023-04-18T06:16:21.669Z,96013.00
2023-04-18T06:17:21.674Z,96015.00
2023-04-18T06:18:22.619Z,96017.00
2023-04-18T06:19:21.598Z,96019.00
2023-04-18T06:20:22.642Z,96017.00
2023-04-18T06:21:22.585Z,96019.00
2023-04-18T06:22:22.582Z,96021.00
2023-04-18T06:23:22.593Z,96019.00
2023-04-18T06:24:21.555Z,96019.00
2023-04-18T06:25:22.574Z,96017.00
2023-04-18T06:26:22.540Z,96019.00
2023-04-18T06:27:31.021Z,96021.00
2023-04-18T06:28:22.537Z,96025.00
2023-04-18T06:29:22.525Z,96025.00
2023-04-18T06:30:21.544Z,96023.00
2023-04-18T06:31:22.522Z,96027.00
2023-04-18T06:32:22.554Z,96031.00
2023-04-18T06:33:22.518Z,96031.00
2023-04-18T06:34:22.494Z,96035.00
2023-04-18T06:35:21.521Z,96029.00
2023-04-18T06:36:21.482Z,96027.00
2023-04-18T06:37:22.477Z,96027.00
2023-04-18T06:38:22.476Z,96031.00
2023-04-18T06:39:22.487Z,96029.00
2023-04-18T06:40:21.472Z,96031.00
2023-04-18T06:41:22.472Z,96027.00
2023-04-18T06:42:22.951Z,96027.00
2023-04-18T06:43:22.439Z,96027.00
2023-04-18T06:44:22.428Z,96029.00
2023-04-18T06:45:22.427Z,96025.00
2023-04-18T06:46:22.523Z,96025.00
2023-04-18T06:47:22.435Z,96027.00
2023-04-18T06:48:22.410Z,96025.00
2023-04-18T06:49:26.438Z,96025.00
2023-04-18T06:50:21.397Z,96023.00
2023-04-18T06:51:22.381Z,96023.00
2023-04-18T06:52:22.371Z,96027.00
2023-04-18T06:53:22.380Z,96029.00
2023-04-18T06:54:22.395Z,96029.00
2023-04-18T06:55:21.485Z,96029.00
2023-04-18T06:56:21.522Z,96029.00
2023-04-18T06:57:21.579Z,96029.00
2023-04-18T06:58:21.613Z,96029.00
2023-04-18T06:59:21.697Z,96029.00
2023-04-18T07:00:21.754Z,96027.00
2023-04-18T07:01:21.793Z,96027.00
2023-04-18T07:02:22.924Z,96029.00
2023-04-18T07:03:23.075Z,96027.00
2023-04-18T07:04:23.082Z,96023.00
2023-04-18T07:05:22.973Z,96025.00
2023-04-18T07:06:23.023Z,96025.00
2023-04-18T07:07:22.079Z,96025.00
2023-04-18T07:08:22.153Z,96025.00
2023-04-18T07:09:23.209Z,96025.00
2023-04-18T07:10:22.277Z,96021.00
2023-04-18T07:11:22.449Z,96025.00
2023-04-18T07:12:23.541Z,96021.00
2023-04-18T07:13:23.525Z,96025.00
2023-04-18T07:14:23.480Z,96023.00
2023-04-18T07:15:22.529Z,96027.00
2023-04-18T07:16:23.680Z,96025.00
2023-04-18T07:17:22.680Z,96025.00
2023-04-18T07:18:36.778Z,96027.00
2023-04-18T07:19:23.684Z,96025.00
2023-04-18T07:20:22.679Z,96023.00
2023-04-18T07:21:23.672Z,96023.00
2023-04-18T07:22:22.670Z,96021.00
2023-04-18T07:23:22.682Z,96025.00
2023-04-18T07:24:22.652Z,96023.00
2023-04-18T07:25:23.633Z,96025.00
2023-04-18T07:26:23.637Z,96025.00
2023-04-18T07:27:23.651Z,96027.00
2023-04-18T07:28:22.615Z,96025.00
2023-04-18T07:29:23.651Z,96025.00
2023-04-18T07:30:23.619Z,96025.00
2023-04-18T07:31:23.642Z,96025.00
2023-04-18T07:32:23.613Z,96025.00
2023-04-18T07:33:23.574Z,96023.00
2023-04-18T07:34:23.582Z,96025.00
2023-04-18T07:35:23.591Z,96027.00
2023-04-18T07:36:23.602Z,96027.00
2023-04-18T07:37:23.617Z,96025.00
2023-04-18T07:38:23.556Z,96027.00
2023-04-18T07:39:23.538Z,96025.00
2023-04-18T07:40:23.547Z,96025.00
2023-04-18T07:41:23.546Z,96029.00
2023-04-18T07:42:23.537Z,96025.00
2023-04-18T07:43:22.549Z,96027.00
2023-04-18T07:44:23.518Z,96025.00
2023-04-18T07:45:23.586Z,96027.00
2023-04-18T07:46:23.593Z,96027.00
2023-04-18T07:47:22.728Z,96025.00
2023-04-18T07:48:23.509Z,96029.00
2023-04-18T07:49:23.484Z,96029.00
2023-04-18T07:50:23.532Z,96021.00
2023-04-18T07:51:23.698Z,96029.00
2023-04-18T07:52:23.555Z,96031.00
2023-04-18T07:53:23.594Z,96031.00
2023-04-18T07:54:23.584Z,96035.00
2023-04-18T07:55:23.599Z,96033.00
2023-04-18T07:56:23.631Z,96035.00
2023-04-18T07:57:23.626Z,96035.00
2023-04-18T07:58:23.617Z,96033.00
2023-04-18T07:59:23.808Z,96033.00
2023-04-18T08:00:22.648Z,96033.00
2023-04-18T08:01:23.640Z,96035.00
2023-04-18T08:02:22.792Z,96033.00
2023-04-18T08:03:23.819Z,96035.00
2023-04-18T08:04:23.774Z,96035.00
2023-04-18T08:05:23.754Z,96033.00
2023-04-18T08:06:23.662Z,96035.00
2023-04-18T08:07:23.681Z,96037.00
2023-04-18T08:08:22.726Z,96035.00
2023-04-18T08:09:22.722Z,96035.00
2023-04-18T08:10:23.958Z,96033.00
2023-04-18T08:11:23.764Z,96033.00
2023-04-18T08:12:23.779Z,96035.00
2023-04-18T08:13:23.837Z,96037.00
2023-04-18T08:14:23.812Z,96037.00
2023-04-18T08:15:23.820Z,96037.00
2023-04-18T08:16:23.842Z,96039.00
2023-04-18T08:17:22.849Z,96039.00
2023-04-18T08:18:23.806Z,96037.00
2023-04-18T08:19:22.839Z,96039.00
2023-04-18T08:20:23.901Z,96035.00
2023-04-18T08:21:22.956Z,96035.00
2023-04-18T08:22:23.905Z,96033.00
2023-04-18T08:23:22.915Z,96033.00
2023-04-18T08:24:23.921Z,96035.00
2023-04-18T08:25:22.961Z,96035.00
2023-04-18T08:26:22.931Z,96035.00
2023-04-18T08:27:22.918Z,96031.00
2023-04-18T08:28:23.914Z,96039.00
2023-04-18T08:29:22.918Z,96037.00
2023-04-18T08:30:22.954Z,96037.00
2023-04-18T08:31:23.027Z,96033.00
2023-04-18T08:32:23.976Z,96033.00
2023-04-18T08:33:23.917Z,96037.00
2023-04-18T08:34:23.907Z,96039.00
2023-04-18T08:35:22.935Z,96037.00
2023-04-18T08:36:23.980Z,96041.00
2023-04-18T08:37:22.958Z,96039.00
2023-04-18T08:38:23.897Z,96037.00
2023-04-18T08:39:25.322Z,96037.00
2023-04-18T08:40:23.944Z,96037.00
2023-04-18T08:41:23.214Z,96039.00
2023-04-18T08:42:22.977Z,96041.00
2023-04-18T08:43:23.960Z,96037.00
2023-04-18T08:44:22.960Z,96039.00
2023-04-18T08:45:22.954Z,96037.00
2023-04-18T08:46:24.002Z,96039.00
2023-04-18T08:47:24.023Z,96041.00
2023-04-18T08:48:24.009Z,96039.00
2023-04-18T08:49:24.043Z,96039.00
2023-04-18T08:50:24.110Z,96037.00
2023-04-18T08:51:24.078Z,96037.00
2023-04-18T08:52:24.080Z,96039.00
2023-04-18T08:53:24.070Z,96039.00
2023-04-18T08:54:25.594Z,96039.00
2023-04-18T08:55:23.104Z,96035.00
2023-04-18T08:56:24.208Z,96035.00
2023-04-18T08:57:24.108Z,96037.00
2023-04-18T08:58:23.088Z,96039.00
2023-04-18T08:59:23.089Z,96039.00
2023-04-18T09:00:23.082Z,96039.00
2023-04-18T09:01:23.137Z,96039.00
2023-04-18T09:02:24.201Z,96039.00
2023-04-18T09:03:24.169Z,96037.00
2023-04-18T09:04:24.097Z,96035.00
2023-04-18T09:05:24.050Z,96039.00
2023-04-18T09:06:23.051Z,96039.00
2023-04-18T09:07:24.060Z,96039.00
2023-04-18T09:08:23.048Z,96037.00
2023-04-18T09:09:24.015Z,96037.00
2023-04-18T09:10:24.054Z,96039.00
2023-04-18T09:11:23.006Z,96039.00
2023-04-18T09:12:24.001Z,96039.00
2023-04-18T09:13:24.607Z,96037.00
2023-04-18T09:14:23.012Z,96037.00
2023-04-18T09:15:22.988Z,96035.00
2023-04-18T09:16:23.983Z,96035.00
2023-04-18T09:17:23.988Z,96035.00
2023-04-18T09:18:23.994Z,96033.00
2023-04-18T09:19:24.005Z,96033.00
2023-04-18T09:20:22.964Z,96031.00
2023-04-18T09:21:23.984Z,96033.00
2023-04-18T09:22:23.948Z,96031.00
2023-04-18T09:23:23.921Z,96029.00
2023-04-18T09:24:22.926Z,96033.00
2023-04-18T09:25:22.934Z,96033.00
2023-04-18T09:26:24.001Z,96031.00
2023-04-18T09:27:24.041Z,96029.00
2023-04-18T09:28:24.099Z,96029.00
2023-04-18T09:29:23.121Z,96029.00
2023-04-18T09:30:23.177Z,96031.00
2023-04-18T09:31:23.254Z,96029.00
2023-04-18T09:32:24.290Z,96029.00
2023-04-18T09:33:23.339Z,96025.00
2023-04-18T09:34:23.412Z,96027.00
2023-04-18T09:35:24.522Z,96025.00
2023-04-18T09:36:24.591Z,96025.00
2023-04-18T09:37:24.585Z,96025.00
2023-04-18T09:38:24.647Z,96025.00
2023-04-18T09:39:24.734Z,96019.00
2023-04-18T09:40:24.806Z,96019.00
2023-04-18T09:41:23.859Z,96021.00
2023-04-18T09:42:26.201Z,96017.00
2023-04-18T09:43:23.882Z,96019.00
2023-04-18T09:44:23.885Z,96015.00
2023-04-18T09:45:23.865Z,96015.00
2023-04-18T09:46:25.294Z,96015.00
2023-04-18T09:47:24.901Z,96011.00
2023-04-18T09:48:24.859Z,96011.00
2023-04-18T09:49:23.848Z,96013.00
2023-04-18T09:50:23.874Z,96009.00
2023-04-18T09:51:24.868Z,96007.00
2023-04-18T09:52:25.230Z,96007.00
2023-04-18T09:53:24.797Z,96011.00
2023-04-18T09:54:24.790Z,96009.00
2023-04-18T09:55:24.795Z,96009.00
2023-04-18T09:56:23.774Z,96011.00
2023-04-18T09:57:23.785Z,96009.00
2023-04-18T09:58:24.777Z,96009.00
2023-04-18T09:59:23.759Z,96011.00
2023-04-18T10:00:23.799Z,96009.00
2023-04-18T10:01:23.782Z,96011.00
2023-04-18T10:02:24.816Z,96007.00
2023-04-18T10:03:23.823Z,96007.00
2023-04-18T10:04:24.794Z,96009.00
2023-04-18T10:05:24.745Z,96009.00
2023-04-18T10:06:24.709Z,96005.00
2023-04-18T10:07:24.737Z,96007.00
2023-04-18T10:08:24.717Z,96009.00
2023-04-18T10:09:23.682Z,96007.00
2023-04-18T10:10:23.715Z,96007.00
2023-04-18T10:11:24.688Z,96007.00
2023-04-18T10:12:24.673Z,96009.00
2023-04-18T10:13:23.667Z,96007.00
2023-04-18T10:14:23.653Z,96007.00
2023-04-18T10:15:24.654Z,96009.00
2023-04-18T10:16:23.708Z,96007.00
2023-04-18T10:17:23.685Z,96007.00
2023-04-18T10:18:23.690Z,96007.00
2023-04-18T10:19:24.692Z,96005.00
2023-04-18T10:20:23.689Z,96003.00
2023-04-18T10:21:24.619Z,96003.00
2023-04-18T10:22:24.632Z,96005.00
2023-04-18T10:23:23.664Z,96005.00
2023-04-18T10:24:24.581Z,95999.00
2023-04-18T10:25:23.586Z,96003.00
2023-04-18T10:26:24.597Z,96001.00
2023-04-18T10:27:23.569Z,96001.00
2023-04-18T10:28:24.246Z,96005.00
2023-04-18T10:29:23.553Z,96003.00
2023-04-18T10:30:24.538Z,96003.00
2023-04-18T10:31:24.608Z,95997.00
2023-04-18T10:32:24.563Z,96005.00
2023-04-18T10:33:29.928Z,95997.00
2023-04-18T10:34:24.519Z,96001.00
2023-04-18T10:35:24.506Z,95999.00
2023-04-18T10:36:24.641Z,95999.00
2023-04-18T10:37:24.501Z,95995.00
2023-04-18T10:38:24.501Z,95999.00
2023-04-18T10:39:24.515Z,95999.00
2023-04-18T10:40:23.479Z,95997.00
2023-04-18T10:41:24.500Z,95997.00
2023-04-18T10:42:23.736Z,95995.00
2023-04-18T10:43:23.456Z,95994.00
2023-04-18T10:44:24.499Z,95994.00
2023-04-18T10:45:23.461Z,95992.00
2023-04-18T10:46:31.592Z,95994.00
2023-04-18T10:47:24.964Z,95992.00
2023-04-18T10:48:24.500Z,95988.00
2023-04-18T10:49:26.793Z,95990.00
2023-04-18T10:50:23.405Z,95992.00
2023-04-18T10:51:24.394Z,95990.00
2023-04-18T10:52:23.397Z,95988.00
2023-04-18T10:53:24.404Z,95992.00
2023-04-18T10:54:24.372Z,95988.00
2023-04-18T10:55:24.391Z,95986.00
2023-04-18T10:56:24.377Z,95988.00
2023-04-18T10:57:23.347Z,95990.00
2023-04-18T10:58:24.357Z,95986.00
2023-04-18T10:59:24.331Z,95984.00
2023-04-18T11:00:23.326Z,95982.00
2023-04-18T11:01:24.365Z,95984.00
2023-04-18T11:02:23.430Z,95982.00
2023-04-18T11:03:24.362Z,95980.00
2023-04-18T11:04:23.321Z,95982.00
2023-04-18T11:05:23.280Z,95982.00
2023-04-18T11:06:24.281Z,95980.00
2023-04-18T11:07:24.279Z,95980.00
2023-04-18T11:08:24.277Z,95978.00
2023-04-18T11:09:24.260Z,95980.00
2023-04-18T11:10:23.251Z,95978.00
2023-04-18T11:11:24.280Z,95976.00
2023-04-18T11:12:23.255Z,95974.00
2023-04-18T11:13:23.234Z,95972.00
2023-04-18T11:14:24.220Z,95974.00
2023-04-18T11:15:24.226Z,95974.00
2023-04-18T11:16:24.241Z,95968.00
2023-04-18T11:17:24.351Z,95968.00
2023-04-18T11:18:24.199Z,95968.00
2023-04-18T11:19:23.185Z,95968.00
2023-04-18T11:20:24.185Z,95968.00
2023-04-18T11:21:24.180Z,95968.00
2023-04-18T11:22:24.163Z,95966.00
2023-04-18T11:23:24.213Z,95968.00
2023-04-18T11:24:24.405Z,95966.00
2023-04-18T11:25:24.226Z,95964.00
2023-04-18T11:26:23.208Z,95962.00
2023-04-18T11:27:23.162Z,95966.00
2023-04-18T11:28:23.125Z,95964.00
2023-04-18T11:29:23.121Z,95964.00
2023-04-18T11:30:23.123Z,95964.00
2023-04-18T11:31:23.133Z,95964.00
2023-04-18T11:32:23.277Z,95966.00
2023-04-18T11:33:24.167Z,95966.00
2023-04-18T11:34:23.086Z,95964.00
2023-04-18T11:35:24.079Z,95970.00
2023-04-18T11:36:23.092Z,95966.00
2023-04-18T11:37:24.268Z,95968.00
2023-04-18T11:38:24.279Z,95970.00
2023-04-18T11:39:23.059Z,95966.00
2023-04-18T11:40:24.043Z,95964.00
2023-04-18T11:41:24.038Z,95964.00
2023-04-18T11:42:24.048Z,95966.00
2023-04-18T11:43:24.081Z,95966.00
2023-04-18T11:44:24.015Z,95966.00
2023-04-18T11:45:24.012Z,95964.00
2023-04-18T11:46:24.072Z,95966.00
2023-04-18T11:47:23.038Z,95964.00
2023-04-18T11:48:22.986Z,95964.00
2023-04-18T11:49:22.969Z,95966.00
2023-04-18T11:50:22.973Z,95962.00
2023-04-18T11:51:23.952Z,95968.00
2023-04-18T11:52:22.954Z,95960.00
2023-04-18T11:53:22.952Z,95962.00
2023-04-18T11:54:23.938Z,95964.00
2023-04-18T11:55:22.937Z,95960.00
2023-04-18T11:56:23.920Z,95962.00
2023-04-18T11:57:23.908Z,95962.00
2023-04-18T11:58:22.904Z,95964.00
2023-04-18T11:59:22.915Z,95960.00
2023-04-18T12:00:22.887Z,95958.00
2023-04-18T12:01:22.918Z,95958.00
2023-04-18T12:02:23.981Z,95958.00
2023-04-18T12:03:24.004Z,95956.00
2023-04-18T12:04:23.089Z,95956.00
2023-04-18T12:05:23.120Z,95956.00
2023-04-18T12:06:24.151Z,95956.00
2023-04-18T12:07:23.831Z,95958.00
2023-04-18T12:08:23.849Z,95952.00
2023-04-18T12:09:23.845Z,95954.00
2023-04-18T12:10:23.819Z,95954.00
2023-04-18T12:11:22.804Z,95952.00
2023-04-18T12:12:23.809Z,95954.00
2023-04-18T12:13:23.789Z,95952.00
2023-04-18T12:14:22.779Z,95954.00
2023-04-18T12:15:22.907Z,95952.00
2023-04-18T12:16:22.804Z,95952.00
2023-04-18T12:17:23.823Z,95954.00
2023-04-18T12:18:23.748Z,95952.00
2023-04-18T12:19:23.740Z,95952.00
2023-04-18T12:20:23.736Z,95948.00
2023-04-18T12:21:22.732Z,95952.00
2023-04-18T12:22:23.728Z,95950.00
2023-04-18T12:23:22.741Z,95954.00
2023-04-18T12:24:23.726Z,95950.00
2023-04-18T12:25:27.100Z,95952.00
2023-04-18T12:26:22.730Z,95954.00
2023-04-18T12:27:23.679Z,95956.00
2023-04-18T12:28:22.681Z,95954.00
2023-04-18T12:29:23.692Z,95952.00
2023-04-18T12:30:22.661Z,95954.00
2023-04-18T12:31:23.746Z,95956.00
2023-04-18T12:32:23.662Z,95956.00
2023-04-18T12:33:23.648Z,95956.00
2023-04-18T12:34:22.680Z,95956.00
2023-04-18T12:35:22.633Z,95954.00
2023-04-18T12:36:22.612Z,95956.00
2023-04-18T12:37:23.621Z,95952.00
2023-04-18T12:38:22.615Z,95950.00
2023-04-18T12:39:22.606Z,95952.00
2023-04-18T12:40:22.624Z,95947.00
2023-04-18T12:41:22.590Z,95948.00
2023-04-18T12:42:22.574Z,95948.00
2023-04-18T12:43:23.570Z,95948.00
2023-04-18T12:44:22.568Z,95945.00
2023-04-18T12:45:23.557Z,95945.00
2023-04-18T12:46:22.575Z,95943.00
2023-04-18T12:47:22.632Z,95945.00
2023-04-18T12:48:22.539Z,95947.00
2023-04-18T12:49:23.529Z,95945.00
2023-04-18T12:50:22.568Z,95945.00
2023-04-18T12:51:23.515Z,95947.00
2023-04-18T12:52:22.503Z,95947.00
2023-04-18T12:53:23.527Z,95947.00
2023-04-18T12:54:23.499Z,95947.00
2023-04-18T12:55:22.498Z,95950.00
2023-04-18T12:56:23.485Z,95950.00
2023-04-18T12:57:22.475Z,95947.00
2023-04-18T12:58:22.467Z,95948.00
2023-04-18T12:59:23.466Z,95947.00
2023-04-18T13:00:23.551Z,95947.00
2023-04-18T13:01:22.491Z,95950.00
2023-04-18T13:02:22.541Z,95947.00
2023-04-18T13:03:23.731Z,95948.00
2023-04-18T13:04:23.628Z,95948.00
2023-04-18T13:05:22.426Z,95947.00
2023-04-18T13:06:23.413Z,95945.00
2023-04-18T13:07:23.439Z,95945.00
2023-04-18T13:08:23.401Z,95945.00
2023-04-18T13:09:23.409Z,95943.00
2023-04-18T13:10:23.407Z,95945.00
2023-04-18T13:11:23.368Z,95943.00
2023-04-18T13:12:23.370Z,95943.00
2023-04-18T13:13:22.387Z,95947.00
2023-04-18T13:14:23.349Z,95947.00
2023-04-18T13:15:22.381Z,95943.00
2023-04-18T13:16:23.453Z,95945.00
2023-04-18T13:17:22.369Z,95945.00
2023-04-18T13:18:22.373Z,95943.00
2023-04-18T13:19:23.372Z,95947.00
2023-04-18T13:20:23.323Z,95941.00
2023-04-18T13:21:23.321Z,95941.00
2023-04-18T13:22:23.310Z,95943.00
2023-04-18T13:23:23.323Z,95943.00
2023-04-18T13:24:22.303Z,95943.00
2023-04-18T13:25:23.282Z,95945.00
2023-04-18T13:26:23.283Z,95939.00
2023-04-18T13:27:22.273Z,95939.00
2023-04-18T13:28:22.277Z,95939.00
2023-04-18T13:29:22.270Z,95935.00
2023-04-18T13:30:23.271Z,95933.00
2023-04-18T13:31:23.257Z,95937.00
2023-04-18T13:32:23.253Z,95933.00
2023-04-18T13:33:23.247Z,95935.00
2023-04-18T13:34:23.287Z,95933.00
2023-04-18T13:35:22.310Z,95933.00
2023-04-18T13:36:23.292Z,95935.00
2023-04-18T13:37:22.338Z,95935.00
2023-04-18T13:38:22.357Z,95939.00
2023-04-18T13:39:22.405Z,95937.00
2023-04-18T13:40:23.433Z,95937.00
2023-04-18T13:41:22.418Z,95925.00
2023-04-18T13:42:22.413Z,95935.00
2023-04-18T13:43:22.446Z,95939.00
2023-04-18T13:44:22.429Z,95943.00
2023-04-18T13:45:23.443Z,95941.00
2023-04-18T13:46:23.456Z,95941.00
2023-04-18T13:47:22.452Z,95939.00
2023-04-18T13:48:23.454Z,95941.00
2023-04-18T13:49:23.482Z,95939.00
2023-04-18T13:50:22.467Z,95941.00
2023-04-18T13:51:23.482Z,95943.00
2023-04-18T13:52:22.480Z,95941.00
2023-04-18T13:53:23.470Z,95945.00
2023-04-18T13:54:23.438Z,95943.00
2023-04-18T13:55:23.447Z,95947.00
2023-04-18T13:56:23.452Z,95945.00
2023-04-18T13:57:22.462Z,95945.00
2023-04-18T13:58:22.483Z,95945.00
2023-04-18T13:59:22.511Z,95947.00
2023-04-18T14:00:23.534Z,95945.00
2023-04-18T14:01:23.704Z,95948.00
2023-04-18T14:02:23.673Z,95947.00
2023-04-18T14:03:22.924Z,95945.00
2023-04-18T14:04:23.827Z,95947.00
2023-04-18T14:05:23.676Z,95952.00
2023-04-18T14:06:22.721Z,95948.00
2023-04-18T14:07:23.837Z,95948.00
2023-04-18T14:08:23.843Z,95948.00
2023-04-18T14:09:23.912Z,95947.00
2023-04-18T14:10:22.956Z,95948.00
2023-04-18T14:11:22.978Z,95954.00
2023-04-18T14:12:24.034Z,95952.00
2023-04-18T14:13:23.078Z,95952.00
2023-04-18T14:14:24.148Z,95950.00
2023-04-18T14:15:23.236Z,95952.00
2023-04-18T14:16:24.293Z,95954.00
2023-04-18T14:17:24.320Z,95950.00
2023-04-18T14:18:23.386Z,95954.00
2023-04-18T14:19:23.412Z,95954.00
2023-04-18T14:20:23.435Z,95958.00
2023-04-18T14:21:23.450Z,95956.00
2023-04-18T14:22:23.511Z,95960.00
2023-04-18T14:23:23.519Z,95960.00
2023-04-18T14:24:23.525Z,95958.00
2023-04-18T14:25:24.506Z,95962.00
2023-04-18T14:26:23.495Z,95958.00
2023-04-18T14:27:24.487Z,95956.00
2023-04-18T14:28:24.480Z,95958.00
2023-04-18T14:29:24.476Z,95958.00
2023-04-18T14:30:23.471Z,95958.00
2023-04-18T14:31:24.509Z,95960.00
2023-04-18T14:32:23.496Z,95962.00
2023-04-18T14:33:24.473Z,95962.00
2023-04-18T14:34:23.488Z,95964.00
2023-04-18T14:35:23.459Z,95964.00
2023-04-18T14:36:23.453Z,95964.00
2023-04-18T14:37:24.446Z,95966.00
2023-04-18T14:38:23.447Z,95964.00
2023-04-18T14:39:24.472Z,95966.00
2023-04-18T14:40:24.465Z,95970.00
2023-04-18T14:41:24.463Z,95968.00
2023-04-18T14:42:23.445Z,95970.00
2023-04-18T14:43:23.450Z,95966.00
2023-04-18T14:44:23.442Z,95968.00
2023-04-18T14:45:23.482Z,95962.00
2023-04-18T14:46:23.462Z,95964.00
2023-04-18T14:47:24.373Z,95966.00
2023-04-18T14:48:23.504Z,95966.00
2023-04-18T14:49:24.455Z,95966.00
2023-04-18T14:50:23.505Z,95968.00
2023-04-18T14:51:23.477Z,95968.00
2023-04-18T14:52:24.468Z,95966.00
2023-04-18T14:53:24.494Z,95966.00
2023-04-18T14:54:23.493Z,95968.00
2023-04-18T14:55:23.539Z,95968.00
2023-04-18T14:56:23.533Z,95968.00
2023-04-18T14:57:23.570Z,95972.00
2023-04-18T14:58:24.520Z,95968.00
2023-04-18T14:59:24.561Z,95970.00
2023-04-18T15:00:24.557Z,95976.00
2023-04-18T15:01:23.602Z,95974.00
2023-04-18T15:02:23.647Z,95972.00
2023-04-18T15:03:24.849Z,95970.00
2023-04-18T15:04:24.893Z,95972.00
2023-04-18T15:05:23.625Z,95966.00
2023-04-18T15:06:24.649Z,95970.00
2023-04-18T15:07:24.671Z,95974.00
2023-04-18T15:08:24.690Z,95968.00
2023-04-18T15:09:24.697Z,95972.00
2023-04-18T15:10:24.724Z,95976.00
2023-04-18T15:11:23.761Z,95972.00
2023-04-18T15:12:24.768Z,95976.00
2023-04-18T15:13:24.767Z,95976.00
2023-04-18T15:14:24.816Z,95978.00
2023-04-18T15:15:23.791Z,95976.00
2023-04-18T15:16:24.943Z,95980.00
2023-04-18T15:17:24.850Z,95980.00
2023-04-18T15:18:24.855Z,95978.00
2023-04-18T15:19:24.869Z,95978.00
2023-04-18T15:20:24.196Z,95980.00
2023-04-18T15:21:23.904Z,95980.00
2023-04-18T15:22:23.928Z,95980.00
2023-04-18T15:23:23.956Z,95982.00
2023-04-18T15:24:25.007Z,95986.00
2023-04-18T15:25:25.038Z,95984.00
2023-04-18T15:26:24.069Z,95986.00
2023-04-18T15:27:25.108Z,95986.00
2023-04-18T15:28:24.164Z,95990.00
2023-04-18T15:29:25.162Z,95984.00
